Time;durP1;ratioP1;P1;durP2;ratioP2;P2;SDS_P1;SDS_P2;PMS_P1;PMS_P2;Temp;Humidity;BMP_temperature;BMP_pressure;BME280_temperature;BME280_humidity;BME280_pressure;Samples;Min_cycle;Max_cycle;Signal;HPM_P1;HPM_P2
2022/02/25 00:00:36;;;;;;;8.15;3.55;;;;;;;2.49;73.72;99723.28;4984226;28;20034;-72
2022/02/25 00:03:03;;;;;;;12.45;4.15;;;;;;;2.53;74.09;99724.06;4983768;28;20043;-73
2022/02/25 00:05:29;;;;;;;9.60;2.97;;;;;;;2.53;73.81;99726.66;4985056;28;20038;-74
2022/02/25 00:07:54;;;;;;;9.85;3.25;;;;;;;2.56;73.65;99735.28;4984218;28;20083;-74
2022/02/25 00:10:20;;;;;;;9.40;3.53;;;;;;;2.59;73.83;99736.97;4983766;28;20077;-72
2022/02/25 00:12:46;;;;;;;7.85;2.70;;;;;;;2.64;73.79;99734.31;4984426;28;20121;-71
2022/02/25 00:15:12;;;;;;;13.32;3.35;;;;;;;2.66;73.04;99746.41;5000001;28;20034;-73
2022/02/25 00:17:37;;;;;;;8.45;3.75;;;;;;;2.72;73.13;99743.66;4984488;28;20411;-73
2022/02/25 00:20:03;;;;;;;8.82;3.20;;;;;;;2.78;73.01;99743.56;5002227;28;20072;-72
2022/02/25 00:22:29;;;;;;;17.98;3.85;;;;;;;2.79;72.90;99740.06;5003994;28;20106;-73
2022/02/25 00:24:54;;;;;;;11.57;4.10;;;;;;;2.84;72.75;99746.94;5004069;28;20675;-71
2022/02/25 00:27:20;;;;;;;10.70;3.28;;;;;;;2.86;72.51;99748.63;5003331;28;20029;-73
2022/02/25 00:29:45;;;;;;;11.40;3.20;;;;;;;2.86;72.26;99758.19;5018964;28;20046;-73
2022/02/25 00:32:10;;;;;;;7.50;3.47;;;;;;;2.84;71.90;99754.75;4996342;28;20495;-73
2022/02/25 00:34:36;;;;;;;18.33;2.90;;;;;;;2.82;72.25;99765.19;4984149;28;20038;-73
2022/02/25 00:37:01;;;;;;;13.02;3.40;;;;;;;2.79;72.18;99766.09;4977486;28;20097;-72
2022/02/25 00:39:26;;;;;;;10.18;3.45;;;;;;;2.76;72.31;99767.91;4984900;28;20065;-72
2022/02/25 00:41:52;;;;;;;10.60;3.38;;;;;;;2.73;72.25;99771.44;4981553;28;20078;-73
2022/02/25 00:44:17;;;;;;;10.10;3.20;;;;;;;2.69;71.42;99772.38;4997203;28;20066;-73
2022/02/25 00:46:42;;;;;;;11.63;4.03;;;;;;;2.83;76.53;99774.75;4983107;28;20061;-62
2022/02/25 00:49:08;;;;;;;12.70;3.22;;;;;;;3.59;73.57;99774.13;4989023;28;20037;-62
2022/02/25 00:51:34;;;;;;;11.00;3.03;;;;;;;3.54;68.68;99774.22;4963733;28;20180;-74
2022/02/25 00:53:59;;;;;;;7.85;4.25;;;;;;;3.26;69.26;99776.53;4966498;28;20382;-74
2022/02/25 00:56:25;;;;;;;7.10;3.08;;;;;;;3.07;69.01;99783.81;4971663;28;20081;-73
2022/02/25 00:58:53;;;;;;;8.63;2.55;;;;;;;2.91;69.15;99792.81;4990310;28;20416;-72
2022/02/25 01:01:18;;;;;;;8.30;3.38;;;;;;;2.84;69.45;99801.63;4990768;28;20518;-73
2022/02/25 01:03:44;;;;;;;9.27;3.80;;;;;;;2.76;69.79;99797.41;4989994;28;20030;-73
2022/02/25 01:06:10;;;;;;;7.43;2.65;;;;;;;2.73;69.58;99800.06;4987918;28;20034;-73
2022/02/25 01:08:36;;;;;;;6.82;2.58;;;;;;;2.69;70.02;99795.78;4992320;28;20042;-72
2022/02/25 01:11:01;;;;;;;7.97;2.92;;;;;;;2.66;69.56;99794.97;4992091;28;20164;-73
2022/02/25 01:13:26;;;;;;;7.35;2.42;;;;;;;2.62;69.75;99804.59;5011259;28;20038;-73
2022/02/25 01:15:52;;;;;;;11.23;2.85;;;;;;;2.58;69.88;99802.91;5014360;28;20127;-73
2022/02/25 01:18:17;;;;;;;13.25;3.40;;;;;;;2.57;70.39;99814.22;5013750;28;20038;-74
2022/02/25 01:20:43;;;;;;;10.68;2.72;;;;;;;2.50;70.06;99808.25;5019004;28;20111;-73
2022/02/25 01:23:09;;;;;;;7.13;2.50;;;;;;;2.50;70.33;99812.59;5022119;28;20065;-74
2022/02/25 01:25:35;;;;;;;7.00;2.90;;;;;;;2.49;70.47;99810.88;5028197;28;20041;-74
2022/02/25 01:28:00;;;;;;;9.48;3.40;;;;;;;2.47;70.52;99816.09;5013139;28;20033;-75
2022/02/25 01:30:26;;;;;;;13.32;3.13;;;;;;;2.46;70.20;99818.72;5025891;28;20041;-73
2022/02/25 01:32:51;;;;;;;15.50;4.70;;;;;;;2.44;70.31;99817.91;5025277;28;20034;-73
2022/02/25 01:35:16;;;;;;;9.60;3.25;;;;;;;2.42;70.56;99819.66;5009140;28;20027;-74
2022/02/25 01:37:44;;;;;;;9.70;2.50;;;;;;;2.40;70.49;99821.44;5006911;28;20062;-73
2022/02/25 01:40:09;;;;;;;8.73;2.65;;;;;;;2.40;69.83;99821.44;5006090;28;20041;-73
2022/02/25 01:42:46;;;;;;;7.97;3.13;;;;;;;2.36;70.26;99821.47;5004083;28;20084;-74
2022/02/25 01:45:11;;;;;;;9.60;4.07;;;;;;;2.35;70.87;99837.97;5002321;28;20035;-73
2022/02/25 01:47:37;;;;;;;7.32;3.50;;;;;;;2.33;70.13;99839.72;4995926;28;20123;-73
2022/02/25 01:50:02;;;;;;;7.00;3.10;;;;;;;2.32;70.67;99837.16;5002168;28;20045;-74
2022/02/25 01:52:28;;;;;;;10.48;3.15;;;;;;;2.30;70.66;99844.13;5004015;28;20357;-74
2022/02/25 01:54:53;;;;;;;6.72;3.63;;;;;;;2.29;70.58;99842.38;5003342;28;20089;-73
2022/02/25 01:57:18;;;;;;;12.00;6.00;;;;;;;2.28;70.82;99848.47;4989628;28;20491;-73
2022/02/25 01:59:44;;;;;;;11.02;2.90;;;;;;;2.26;70.75;99847.63;4990989;28;20036;-73
2022/02/25 02:02:10;;;;;;;11.32;4.10;;;;;;;2.25;70.95;99844.19;4956469;28;20901;-73
2022/02/25 02:04:36;;;;;;;11.05;3.40;;;;;;;2.24;70.86;99847.69;4989730;28;20035;-75
2022/02/25 02:07:02;;;;;;;14.18;4.43;;;;;;;2.25;70.61;99848.53;4989695;28;20125;-74
2022/02/25 02:09:27;;;;;;;13.27;3.40;;;;;;;2.21;70.47;99846.84;4989561;28;20034;-74
2022/02/25 02:11:55;;;;;;;7.90;4.15;;;;;;;2.18;71.41;99854.69;4989967;28;20045;-74
2022/02/25 02:14:22;;;;;;;6.90;2.92;;;;;;;2.12;71.54;99853.06;4989426;28;20508;-74
2022/02/25 02:16:51;;;;;;;14.30;3.47;;;;;;;2.06;72.30;99859.16;4992038;28;20428;-73
2022/02/25 02:19:17;;;;;;;10.23;2.75;;;;;;;1.99;72.10;99849.72;4993634;28;20031;-74
2022/02/25 02:21:53;;;;;;;8.77;3.75;;;;;;;1.97;72.12;99858.44;4992390;28;20424;-75
2022/02/25 02:24:20;;;;;;;6.90;3.05;;;;;;;1.94;72.60;99861.94;4990067;28;20034;-73
2022/02/25 02:26:46;;;;;;;10.95;2.85;;;;;;;1.90;71.91;99857.66;4995949;28;20038;-75
2022/02/25 02:29:12;;;;;;;12.25;3.45;;;;;;;1.85;72.37;99862.06;4997449;28;20113;-74
2022/02/25 02:31:38;;;;;;;15.38;3.35;;;;;;;1.84;72.45;99861.19;4990307;28;20118;-74
2022/02/25 02:34:04;;;;;;;9.63;2.63;;;;;;;1.81;72.17;99865.56;4991760;28;20189;-73
2022/02/25 02:36:30;;;;;;;13.25;3.03;;;;;;;1.77;72.27;99859.53;4989680;28;20038;-72
2022/02/25 02:38:55;;;;;;;16.40;5.40;;;;;;;1.77;72.65;99850.88;4992414;28;20038;-74
2022/02/25 02:41:21;;;;;;;12.55;3.70;;;;;;;1.70;72.81;99856.19;4993074;28;20027;-74
2022/02/25 02:43:46;;;;;;;16.83;5.18;;;;;;;1.68;73.04;99854.47;4993505;28;20084;-74
2022/02/25 02:46:13;;;;;;;15.13;3.65;;;;;;;1.63;72.92;99861.47;4993195;28;20034;-74
2022/02/25 02:48:39;;;;;;;13.50;3.50;;;;;;;1.60;73.23;99851.97;4995003;28;20129;-75
2022/02/25 02:51:04;;;;;;;14.15;2.88;;;;;;;1.56;72.95;99852.88;4992151;28;20508;-74
2022/02/25 02:53:30;;;;;;;14.57;3.90;;;;;;;1.52;73.70;99847.72;4993360;28;20066;-73
2022/02/25 02:55:55;;;;;;;10.30;3.08;;;;;;;1.49;74.38;99852.06;4992471;28;20499;-73
2022/02/25 02:58:21;;;;;;;6.43;2.83;;;;;;;1.47;73.95;99848.63;4989321;28;20109;-73
2022/02/25 03:00:48;;;;;;;10.07;3.90;;;;;;;1.44;74.16;99846.06;4991494;28;20046;-73
2022/02/25 03:03:14;;;;;;;6.57;2.60;;;;;;;1.43;74.47;99843.50;4993129;28;20053;-73
2022/02/25 03:05:40;;;;;;;12.93;3.75;;;;;;;1.40;74.51;99854.75;4994212;28;20038;-73
2022/02/25 03:08:05;;;;;;;12.40;3.28;;;;;;;1.36;74.57;99862.63;4998591;28;20038;-74
2022/02/25 03:10:33;;;;;;;13.32;3.13;;;;;;;1.33;74.63;99847.94;4991386;28;20102;-74
2022/02/25 03:12:59;;;;;;;7.28;3.20;;;;;;;1.31;74.92;99854.03;4998650;28;20038;-74
2022/02/25 03:15:24;;;;;;;14.20;3.42;;;;;;;1.32;74.61;99854.00;4996467;28;20406;-74
2022/02/25 03:17:50;;;;;;;8.23;2.75;;;;;;;1.33;74.78;99855.75;4989190;28;20117;-74
2022/02/25 03:20:16;;;;;;;10.80;2.55;;;;;;;1.28;74.72;99860.97;4988824;28;20031;-75
2022/02/25 03:22:41;;;;;;;12.73;3.20;;;;;;;1.25;74.78;99853.19;4989191;28;20038;-74
2022/02/25 03:25:08;;;;;;;14.07;3.25;;;;;;;1.24;75.01;99851.47;4988534;28;20042;-75
2022/02/25 03:27:33;;;;;;;13.60;2.90;;;;;;;1.23;74.84;99857.56;4988388;28;20810;-74
2022/02/25 03:29:59;;;;;;;17.30;3.88;;;;;;;1.23;74.92;99854.09;4988569;28;20125;-74
2022/02/25 03:32:24;;;;;;;13.10;3.40;;;;;;;1.25;74.97;99852.34;4988541;28;20046;-74
2022/02/25 03:34:51;;;;;;;11.63;3.20;;;;;;;1.24;74.82;99858.41;4987795;28;20117;-74
2022/02/25 03:37:18;;;;;;;11.32;3.17;;;;;;;1.24;75.06;99861.03;4991639;28;20030;-73
2022/02/25 03:39:43;;;;;;;11.07;3.47;;;;;;;1.24;75.04;99868.81;4992071;28;20376;-74
2022/02/25 03:42:08;;;;;;;10.13;3.22;;;;;;;1.24;75.23;99866.22;4992092;28;20035;-74
2022/02/25 03:44:34;;;;;;;13.18;3.55;;;;;;;1.24;75.35;99855.81;4991884;28;20089;-74
2022/02/25 03:47:00;;;;;;;13.32;3.67;;;;;;;1.24;74.81;99864.47;4990267;28;20117;-74
2022/02/25 03:49:25;;;;;;;9.73;3.70;;;;;;;1.26;74.84;99869.66;4991387;28;20058;-71
2022/02/25 03:51:50;;;;;;;13.57;3.28;;;;;;;1.25;74.72;99860.13;4992019;28;20042;-73
2022/02/25 03:54:16;;;;;;;10.23;2.45;;;;;;;1.28;74.66;99857.53;4991673;28;20022;-74
2022/02/25 03:56:41;;;;;;;7.10;2.88;;;;;;;1.27;74.64;99859.25;4992011;28;20042;-74
2022/02/25 03:59:07;;;;;;;17.83;3.20;;;;;;;1.31;74.61;99859.22;4990784;28;20500;-73
2022/02/25 04:01:32;;;;;;;16.27;3.47;;;;;;;1.31;74.88;99864.41;4992521;28;20038;-74
2022/02/25 04:03:58;;;;;;;11.80;3.00;;;;;;;1.30;74.73;99863.53;4991357;28;20044;-74
2022/02/25 04:06:25;;;;;;;11.43;3.25;;;;;;;1.33;74.33;99863.53;4991909;28;20061;-73
2022/02/25 04:08:50;;;;;;;7.55;2.88;;;;;;;1.33;74.38;99865.25;4991454;28;20035;-73
2022/02/25 04:11:16;;;;;;;4.90;2.80;;;;;;;1.32;74.55;99866.13;4991710;28;20439;-73
2022/02/25 04:13:41;;;;;;;10.93;3.03;;;;;;;1.33;74.38;99858.34;4993485;28;20066;-73
2022/02/25 04:16:08;;;;;;;9.32;3.28;;;;;;;1.31;74.84;99862.69;4994765;28;20038;-73
2022/02/25 04:18:34;;;;;;;17.88;4.85;;;;;;;1.34;74.73;99864.38;4998161;28;20404;-73
2022/02/25 04:21:00;;;;;;;18.45;3.80;;;;;;;1.32;74.84;99866.97;4994604;28;20034;-73
2022/02/25 04:23:25;;;;;;;13.73;3.17;;;;;;;1.33;74.55;99873.91;4992174;28;20050;-75
2022/02/25 04:25:51;;;;;;;9.07;2.88;;;;;;;1.35;74.95;99866.94;4991401;28;20600;-73
2022/02/25 04:28:17;;;;;;;7.85;2.90;;;;;;;1.36;74.34;99870.44;4991487;28;20058;-72
2022/02/25 04:30:43;;;;;;;11.20;3.50;;;;;;;1.34;75.01;99873.03;4989401;28;20034;-73
2022/02/25 04:33:09;;;;;;;18.23;3.35;;;;;;;1.36;74.63;99878.22;4991303;28;20034;-74
2022/02/25 04:35:35;;;;;;;11.82;3.33;;;;;;;1.35;75.12;99871.28;4991014;28;20050;-74
2022/02/25 04:38:01;;;;;;;12.88;2.90;;;;;;;1.35;74.12;99869.53;4991178;28;20030;-73
2022/02/25 04:40:27;;;;;;;16.85;3.92;;;;;;;1.36;74.86;99873.88;4991003;28;20128;-74
2022/02/25 04:42:52;;;;;;;8.45;2.83;;;;;;;1.36;74.88;99873.88;4991166;28;20117;-73
2022/02/25 04:45:18;;;;;;;15.05;4.00;;;;;;;1.39;74.96;99865.19;4982952;28;20046;-73
2022/02/25 04:47:43;;;;;;;22.48;3.80;;;;;;;1.39;74.87;99872.97;4991093;28;20046;-73
2022/02/25 04:50:10;;;;;;;6.30;2.55;;;;;;;1.38;74.69;99864.34;4992506;28;20559;-74
2022/02/25 04:52:36;;;;;;;15.73;3.67;;;;;;;1.39;74.29;99871.25;4990418;28;20042;-74
2022/02/25 04:55:02;;;;;;;9.65;2.45;;;;;;;1.41;74.64;99866.03;4991683;28;20395;-73
2022/02/25 04:57:27;;;;;;;9.85;3.08;;;;;;;1.42;74.46;99868.59;4991431;28;20042;-74
2022/02/25 04:59:52;;;;;;;9.27;2.92;;;;;;;1.44;73.88;99869.44;4988489;28;20033;-74
2022/02/25 05:02:18;;;;;;;11.18;3.00;;;;;;;1.45;74.33;99872.91;4990044;28;20042;-74
2022/02/25 05:04:44;;;;;;;15.45;3.72;;;;;;;1.46;74.66;99877.25;4989431;28;20042;-74
2022/02/25 05:07:09;;;;;;;9.40;3.63;;;;;;;1.47;74.19;99879.81;4990412;28;20042;-73
2022/02/25 05:09:35;;;;;;;10.30;2.53;;;;;;;1.49;74.55;99885.00;4992111;28;20049;-75
2022/02/25 05:12:01;;;;;;;8.85;3.28;;;;;;;1.49;74.29;99885.00;5009800;28;20038;-74
2022/02/25 05:22:39;;;;;;;6.30;3.10;;;;;;;1.49;74.35;99853.81;5018247;28;20049;-74
2022/02/25 05:25:05;;;;;;;11.18;4.40;;;;;;;1.47;74.29;99876.34;5017729;28;20038;-74
2022/02/25 05:27:31;;;;;;;10.65;2.92;;;;;;;1.50;74.16;99865.91;4996839;28;20262;-73
2022/02/25 05:29:56;;;;;;;8.25;3.03;;;;;;;1.52;74.22;99863.31;5001578;28;20614;-74
2022/02/25 05:32:21;;;;;;;5.80;2.85;;;;;;;1.53;74.42;99863.31;4991165;28;20042;-74
2022/02/25 05:34:47;;;;;;;10.88;3.33;;;;;;;1.52;74.38;99877.16;4991366;28;20517;-73
2022/02/25 05:37:12;;;;;;;17.42;3.92;;;;;;;1.53;74.30;99885.81;4989484;28;20054;-73
2022/02/25 05:39:38;;;;;;;11.65;3.80;;;;;;;1.53;73.98;99871.09;4992085;28;20088;-73
2022/02/25 05:42:03;;;;;;;20.00;3.95;;;;;;;1.54;73.91;99869.34;4992128;28;20026;-74
2022/02/25 05:44:29;;;;;;;9.98;3.58;;;;;;;1.58;73.74;99868.47;4992339;28;20435;-74
2022/02/25 05:46:55;;;;;;;12.85;3.13;;;;;;;1.59;73.68;99872.75;4992965;28;20038;-74
2022/02/25 05:49:20;;;;;;;21.58;3.90;;;;;;;1.59;73.44;99875.38;4999612;28;20034;-74
2022/02/25 05:51:45;;;;;;;12.18;2.88;;;;;;;1.63;73.47;99877.06;5005575;28;20053;-74
2022/02/25 05:54:11;;;;;;;14.45;3.75;;;;;;;1.63;73.51;99883.09;4995454;28;20084;-74
2022/02/25 05:56:36;;;;;;;14.25;5.45;;;;;;;1.64;73.96;99889.16;4990719;28;20058;-74
2022/02/25 05:59:02;;;;;;;17.48;3.53;;;;;;;1.64;73.71;99896.97;4988259;28;20405;-75
2022/02/25 06:01:27;;;;;;;9.15;3.25;;;;;;;1.65;73.69;99889.16;4990565;28;20045;-73
2022/02/25 06:03:54;;;;;;;8.63;2.70;;;;;;;1.66;73.55;99892.59;4989441;28;20514;-74
2022/02/25 06:06:19;;;;;;;15.57;3.58;;;;;;;1.65;73.55;99890.88;4987245;28;20050;-74
2022/02/25 06:08:45;;;;;;;10.60;3.67;;;;;;;1.67;73.50;99894.31;4989973;28;20162;-73
2022/02/25 06:11:10;;;;;;;8.27;3.20;;;;;;;1.67;73.64;99892.59;4989307;28;20038;-73
2022/02/25 06:13:36;;;;;;;15.90;3.13;;;;;;;1.68;73.56;99909.03;4989656;28;20050;-74
2022/02/25 06:16:01;;;;;;;6.65;3.08;;;;;;;1.68;73.66;99901.25;4989509;28;20042;-73
2022/02/25 06:18:26;;;;;;;11.73;3.28;;;;;;;1.71;73.93;99907.25;4992611;28;20054;-74
2022/02/25 06:20:52;;;;;;;11.98;3.75;;;;;;;1.74;73.22;99905.50;4990069;28;20480;-74
2022/02/25 06:23:21;;;;;;;17.10;3.97;;;;;;;1.75;73.76;99908.09;4990082;28;20466;-74
2022/02/25 06:25:50;;;;;;;8.65;3.75;;;;;;;1.76;73.40;99907.22;4989403;28;20102;-73
2022/02/25 06:28:15;;;;;;;6.47;2.40;;;;;;;1.78;73.25;99899.41;4989707;28;20054;-73
2022/02/25 06:30:41;;;;;;;12.35;4.03;;;;;;;1.80;73.45;99914.09;4988957;28;20459;-73
2022/02/25 06:33:06;;;;;;;11.68;3.17;;;;;;;1.84;73.29;99930.50;4989366;28;20042;-73
2022/02/25 06:35:32;;;;;;;21.83;4.43;;;;;;;1.88;72.94;99921.81;4989106;28;20104;-74
2022/02/25 06:37:57;;;;;;;14.32;3.25;;;;;;;1.92;73.08;99929.56;4988477;28;20049;-74
2022/02/25 06:40:23;;;;;;;11.85;3.08;;;;;;;1.98;72.92;99932.97;4989185;28;20034;-74
2022/02/25 06:42:49;;;;;;;9.75;3.15;;;;;;;2.02;72.63;99925.13;4990236;28;20046;-74
2022/02/25 06:45:16;;;;;;;14.52;3.42;;;;;;;2.04;73.02;99931.13;4989349;28;20038;-73
2022/02/25 06:47:41;;;;;;;10.88;3.00;;;;;;;2.09;72.80;99937.16;4987882;28;20116;-75
2022/02/25 06:50:08;;;;;;;12.68;3.25;;;;;;;2.14;72.50;99935.38;4988997;28;20042;-74
2022/02/25 06:52:34;;;;;;;11.20;3.00;;;;;;;2.22;72.41;99944.81;4988357;28;20508;-72
2022/02/25 06:55:00;;;;;;;10.70;3.35;;;;;;;2.25;71.75;99940.41;4990114;28;20066;-73
2022/02/25 06:57:25;;;;;;;13.13;3.38;;;;;;;2.30;72.27;99950.78;4990506;28;20121;-74
2022/02/25 06:59:50;;;;;;;17.13;6.10;;;;;;;2.35;71.83;99952.41;4990350;28;20046;-74
2022/02/25 07:02:16;;;;;;;16.55;4.47;;;;;;;2.40;71.79;99959.31;4989244;28;20038;-75
2022/02/25 07:04:41;;;;;;;10.27;3.33;;;;;;;2.43;71.83;99962.72;4988233;28;20193;-74
2022/02/25 07:07:06;;;;;;;13.40;3.40;;;;;;;2.45;71.88;99958.38;4988860;28;20069;-73
2022/02/25 07:09:32;;;;;;;9.52;3.47;;;;;;;2.49;71.71;99954.00;4988286;28;20038;-74
2022/02/25 07:11:57;;;;;;;8.98;3.60;;;;;;;2.52;71.78;99961.75;4993637;28;20049;-74
2022/02/25 07:14:23;;;;;;;7.53;2.80;;;;;;;2.55;71.77;99965.16;4990415;28;20471;-73
2022/02/25 07:16:48;;;;;;;9.95;3.60;;;;;;;2.57;71.53;99968.59;4992622;28;20121;-73
2022/02/25 07:19:14;;;;;;;11.68;3.42;;;;;;;2.62;71.91;99960.75;4993252;28;20050;-74
2022/02/25 07:21:40;;;;;;;18.48;4.15;;;;;;;2.67;71.58;99968.50;4992874;28;20038;-75
2022/02/25 07:24:06;;;;;;;12.93;3.70;;;;;;;2.71;71.54;99970.19;4993211;28;20038;-72
2022/02/25 07:26:31;;;;;;;12.38;3.63;;;;;;;2.75;71.55;99971.84;4992228;28;20038;-72
2022/02/25 07:28:57;;;;;;;16.00;4.82;;;;;;;2.78;71.33;99977.88;5009778;28;20049;-74
2022/02/25 07:31:22;;;;;;;17.40;4.32;;;;;;;2.79;71.78;99973.53;4991761;28;20041;-73
2022/02/25 07:33:47;;;;;;;12.38;3.25;;;;;;;2.82;71.95;99975.22;5009118;28;20050;-73
2022/02/25 07:36:13;;;;;;;17.10;4.50;;;;;;;2.83;72.13;99989.94;4992160;28;20057;-72
2022/02/25 07:38:38;;;;;;;9.55;4.05;;;;;;;2.86;72.04;99980.38;4992330;28;20568;-74
2022/02/25 07:41:04;;;;;;;12.85;4.45;;;;;;;2.84;72.50;99992.53;4992102;28;20507;-73
2022/02/25 07:43:29;;;;;;;8.02;3.30;;;;;;;2.85;73.13;99988.19;4975211;28;20105;-73
2022/02/25 07:45:55;;;;;;;13.38;4.00;;;;;;;2.90;73.53;99988.97;4992413;28;20064;-73
2022/02/25 07:48:21;;;;;;;22.38;5.03;;;;;;;2.87;73.34;99983.81;4992475;28;20103;-73
2022/02/25 07:50:48;;;;;;;29.23;6.70;;;;;;;2.90;73.98;99994.19;4991589;28;20836;-73
2022/02/25 07:53:15;;;;;;;12.70;3.20;;;;;;;2.90;73.86;99996.78;4992148;28;20081;-73
2022/02/25 07:55:40;;;;;;;11.30;3.47;;;;;;;2.85;74.38;99996.84;4991452;28;20118;-72
2022/02/25 07:58:06;;;;;;;15.55;4.47;;;;;;;2.88;74.51;100006.34;4992149;28;20562;-71
2022/02/25 08:00:32;;;;;;;10.73;3.33;;;;;;;2.87;74.62;99997.69;4990648;28;20103;-73
2022/02/25 08:02:59;;;;;;;12.18;4.00;;;;;;;2.86;74.72;100014.22;4991213;28;20081;-73
2022/02/25 08:05:24;;;;;;;11.23;3.65;;;;;;;2.85;74.95;99991.63;4972553;28;20031;-73
2022/02/25 08:07:50;;;;;;;6.75;3.25;;;;;;;2.90;75.22;100002.00;4972634;28;20054;-74
2022/02/25 08:10:16;;;;;;;12.98;4.88;;;;;;;2.93;74.86;100000.22;4970676;28;20045;-73
2022/02/25 08:12:42;;;;;;;20.00;3.53;;;;;;;3.05;74.43;100012.19;4977715;28;20042;-73
2022/02/25 08:15:09;;;;;;;13.35;4.18;;;;;;;3.15;74.00;100020.72;4988548;28;20130;-73
2022/02/25 08:17:36;;;;;;;17.95;5.30;;;;;;;3.19;74.33;100020.66;4992174;28;20500;-74
2022/02/25 08:20:02;;;;;;;18.17;3.58;;;;;;;3.18;73.83;100031.13;4991812;28;20037;-75
2022/02/25 08:22:27;;;;;;;10.25;3.35;;;;;;;3.16;74.19;100038.94;4991826;28;20039;-73
2022/02/25 08:24:53;;;;;;;18.98;4.68;;;;;;;3.16;74.07;100036.34;4993446;28;20042;-73
2022/02/25 08:27:18;;;;;;;14.75;3.67;;;;;;;3.12;74.87;100050.28;4990749;28;20039;-73
2022/02/25 08:29:44;;;;;;;16.02;3.95;;;;;;;3.09;74.98;100052.94;4991474;28;20053;-73
2022/02/25 08:32:11;;;;;;;14.10;4.43;;;;;;;3.04;75.66;100054.75;4990504;28;20495;-72
2022/02/25 08:34:37;;;;;;;12.48;4.05;;;;;;;2.99;76.37;100064.38;4991969;28;20053;-72
2022/02/25 08:37:03;;;;;;;12.80;4.60;;;;;;;2.98;77.35;100067.88;4990295;28;20042;-73
2022/02/25 08:39:28;;;;;;;12.18;3.60;;;;;;;3.01;77.21;100073.88;4991985;28;20038;-74
2022/02/25 08:41:54;;;;;;;15.30;5.68;;;;;;;3.07;77.60;100074.69;4991302;28;20415;-74
2022/02/25 08:44:20;;;;;;;19.08;5.07;;;;;;;3.06;77.49;100084.25;4991581;28;20042;-74
2022/02/25 08:46:47;;;;;;;12.85;4.00;;;;;;;3.01;77.76;100081.69;4973576;28;20414;-74
2022/02/25 08:49:12;;;;;;;15.10;4.65;;;;;;;3.03;77.69;100092.09;4991408;28;20046;-74
2022/02/25 08:51:38;;;;;;;17.23;5.07;;;;;;;3.08;77.38;100092.91;4986283;28;20053;-75
2022/02/25 08:54:04;;;;;;;12.95;4.03;;;;;;;3.15;77.48;100091.94;4991529;28;20113;-67
2022/02/25 08:56:29;;;;;;;18.08;4.60;;;;;;;3.28;77.19;100091.75;4990777;28;20050;-68
2022/02/25 08:58:55;;;;;;;21.20;4.47;;;;;;;3.38;76.77;100080.31;4991208;28;20155;-67
2022/02/25 09:01:23;;;;;;;17.63;4.03;;;;;;;3.52;76.41;100088.78;4990873;28;20045;-68
2022/02/25 09:03:49;;;;;;;10.30;3.88;;;;;;;3.63;75.73;100094.66;4991245;28;20132;-66
2022/02/25 09:06:14;;;;;;;11.02;4.45;;;;;;;3.71;75.59;100094.53;4990736;28;20073;-67
2022/02/25 09:08:41;;;;;;;9.48;3.38;;;;;;;3.79;75.54;100094.41;4990706;28;20053;-69
2022/02/25 09:11:06;;;;;;;19.20;3.75;;;;;;;3.88;75.29;100102.94;4990777;28;20104;-67
2022/02/25 09:13:32;;;;;;;10.88;4.00;;;;;;;3.97;74.61;100108.91;4991093;28;20054;-66
2022/02/25 09:15:57;;;;;;;13.13;3.65;;;;;;;3.99;74.61;100107.16;4990893;28;20506;-68
2022/02/25 09:18:22;;;;;;;18.20;5.45;;;;;;;4.05;74.78;100107.88;4971449;28;20050;-69
2022/02/25 09:20:49;;;;;;;12.43;4.03;;;;;;;4.08;74.20;100106.97;4980882;28;20038;-69
2022/02/25 09:23:14;;;;;;;19.95;4.63;;;;;;;4.08;73.94;100109.56;4988491;28;20049;-69
2022/02/25 09:25:40;;;;;;;18.23;5.32;;;;;;;4.09;74.23;100106.09;5002428;28;20040;-68
2022/02/25 09:28:06;;;;;;;11.57;4.50;;;;;;;4.09;73.70;100120.00;4988499;28;20026;-67
2022/02/25 09:30:32;;;;;;;16.73;4.05;;;;;;;4.09;73.61;100113.91;4989613;28;20403;-74
2022/02/25 09:32:57;;;;;;;20.33;4.50;;;;;;;4.09;73.77;100108.72;4983480;28;20154;-73
2022/02/25 09:35:23;;;;;;;15.18;4.40;;;;;;;4.18;73.57;100123.31;4994512;28;20053;-74
2022/02/25 09:37:49;;;;;;;13.52;4.47;;;;;;;4.19;73.38;100122.44;4986848;28;20034;-73
2022/02/25 09:40:18;;;;;;;16.10;4.93;;;;;;;4.24;73.67;100123.22;4987877;28;20049;-74
2022/02/25 09:42:45;;;;;;;14.25;4.40;;;;;;;4.24;73.38;100129.31;4988844;28;20132;-74
2022/02/25 09:45:13;;;;;;;18.00;5.20;;;;;;;4.29;73.62;100137.06;4988696;28;20034;-74
2022/02/25 09:47:40;;;;;;;17.20;4.70;;;;;;;4.36;72.95;100141.28;4991905;28;20038;-74
2022/02/25 09:50:09;;;;;;;13.45;5.32;;;;;;;4.46;73.41;100142.81;4992416;28;20058;-74
2022/02/25 09:52:36;;;;;;;31.35;5.82;;;;;;;4.55;72.12;100139.16;4992402;28;20602;-72
2022/02/25 09:55:05;;;;;;;19.02;4.18;;;;;;;4.62;72.05;100152.97;4996927;28;20034;-73
2022/02/25 09:57:30;;;;;;;16.70;4.50;;;;;;;4.71;72.01;100150.19;4999966;28;20038;-74
2022/02/25 09:59:55;;;;;;;16.83;5.47;;;;;;;4.80;72.04;100152.63;4991290;28;20065;-74
2022/02/25 10:02:37;;;;;;;19.35;4.95;;;;;;;4.97;71.39;100148.81;4989822;28;20543;-73
2022/02/25 10:05:17;;;;;;;18.88;4.82;;;;;;;5.12;69.96;100146.75;4988819;28;20455;-73
2022/02/25 10:07:43;;;;;;;22.90;5.13;;;;;;;5.30;69.84;100150.72;4989559;28;20038;-74
2022/02/25 10:10:10;;;;;;;14.70;5.55;;;;;;;6.09;67.94;100162.00;4990334;28;20508;-72
2022/02/25 10:12:37;;;;;;;11.82;4.95;;;;;;;7.16;64.51;100159.13;4990046;28;20404;-73
2022/02/25 10:15:03;;;;;;;23.25;5.38;;;;;;;7.67;62.40;100157.56;4990049;28;20396;-74
2022/02/25 10:17:29;;;;;;;14.57;4.90;;;;;;;7.36;62.14;100158.53;4990717;28;20121;-73
2022/02/25 10:20:03;;;;;;;17.33;4.35;;;;;;;6.96;64.29;100167.53;4994871;28;20030;-73
2022/02/25 10:22:30;;;;;;;15.32;4.93;;;;;;;6.58;64.19;100176.47;4994181;28;20038;-74
2022/02/25 10:24:55;;;;;;;14.43;5.30;;;;;;;6.26;65.61;100177.31;5003051;28;20034;-74
2022/02/25 10:27:25;;;;;;;10.88;4.90;;;;;;;6.02;66.42;100182.22;4994240;28;20033;-73
2022/02/25 10:30:00;;;;;;;15.27;5.00;;;;;;;5.84;66.99;100187.88;4997431;28;20100;-73
2022/02/25 10:32:46;;;;;;;17.73;6.07;;;;;;;5.74;67.35;100193.31;4995374;28;20038;-73
2022/02/25 10:35:30;;;;;;;15.88;5.90;;;;;;;5.70;67.75;100199.50;4994264;28;20554;-73
2022/02/25 10:37:57;;;;;;;17.70;4.80;;;;;;;5.62;68.54;100201.44;4991670;28;20138;-74
2022/02/25 10:40:24;;;;;;;19.20;5.72;;;;;;;5.60;67.89;100203.22;4989365;28;20041;-73
2022/02/25 10:42:50;;;;;;;19.63;5.15;;;;;;;5.64;68.10;100204.88;4988123;28;20092;-73
2022/02/25 10:45:29;;;;;;;19.85;5.60;;;;;;;5.61;68.07;100207.56;4989788;28;20488;-73
2022/02/25 10:48:04;;;;;;;16.90;5.25;;;;;;;5.56;68.67;100205.06;4993954;28;20042;-73
2022/02/25 10:50:30;;;;;;;18.90;5.57;;;;;;;5.45;69.45;100208.78;4993121;28;20377;-73
2022/02/25 10:52:56;;;;;;;26.98;5.55;;;;;;;5.38;70.33;100214.13;4992386;28;20029;-74
2022/02/25 10:55:27;;;;;;;16.52;6.47;;;;;;;5.35;70.87;100218.59;4993784;28;20026;-74
2022/02/25 10:57:55;;;;;;;12.82;4.22;;;;;;;5.27;70.47;100218.75;4993009;28;20047;-74
2022/02/25 11:00:23;;;;;;;22.85;4.65;;;;;;;5.26;71.58;100216.16;4992842;28;20089;-74
2022/02/25 11:02:50;;;;;;;15.50;5.28;;;;;;;5.31;70.70;100225.63;4992476;28;20113;-73
2022/02/25 11:05:21;;;;;;;12.57;5.22;;;;;;;5.42;70.84;100233.25;4993864;28;20030;-75
2022/02/25 11:07:54;;;;;;;18.50;5.93;;;;;;;5.54;71.20;100234.75;4992059;28;20026;-72
2022/02/25 11:10:22;;;;;;;26.73;6.63;;;;;;;5.58;69.45;100237.25;4993659;28;20026;-74
2022/02/25 11:12:49;;;;;;;18.63;5.97;;;;;;;5.56;69.29;100239.06;4993640;28;20034;-73
2022/02/25 11:15:17;;;;;;;21.48;7.70;;;;;;;5.59;69.44;100236.38;4992985;28;20038;-74
2022/02/25 11:17:44;;;;;;;16.25;5.70;;;;;;;5.62;68.62;100243.28;4992668;28;20088;-72
2022/02/25 11:20:11;;;;;;;10.70;5.22;;;;;;;5.62;68.74;100245.06;4977944;28;20360;-73
2022/02/25 11:22:40;;;;;;;15.90;5.05;;;;;;;5.67;68.48;100243.19;4993170;28;20030;-73
2022/02/25 11:25:08;;;;;;;16.77;5.88;;;;;;;5.67;68.20;100240.56;4993793;28;20044;-73
2022/02/25 11:27:33;;;;;;;16.05;5.95;;;;;;;5.66;68.02;100242.34;4992726;28;20046;-74
2022/02/25 11:30:09;;;;;;;17.10;4.40;;;;;;;5.76;68.75;100243.84;4993472;28;20061;-74
2022/02/25 11:32:53;;;;;;;;;;;;;;;5.80;67.61;100237.63;4994042;28;20074;-74
2022/02/25 11:35:20;;;;;;;14.18;4.70;;;;;;;5.77;68.08;100242.09;4992848;28;19913;-74
2022/02/25 11:37:49;;;;;;;17.30;5.93;;;;;;;5.78;67.91;100247.31;4993473;28;20042;-73